sensor_id;sensor_type;location;lat;lon;timestamp;P1;durP1;ratioP1;P2;durP2;ratioP2
23310;SDS011;11828;51.508;18.118;2023-11-18T00:01:25;11.68;;;4.60;;
23310;SDS011;11828;51.508;18.118;2023-11-18T00:03:58;10.15;;;4.57;;
23310;SDS011;11828;51.508;18.118;2023-11-18T00:06:25;12.15;;;4.72;;
23310;SDS011;11828;51.508;18.118;2023-11-18T00:08:51;14.52;;;5.15;;
23310;SDS011;11828;51.508;18.118;2023-11-18T00:11:17;13.73;;;5.32;;
23310;SDS011;11828;51.508;18.118;2023-11-18T00:13:44;13.15;;;5.82;;
23310;SDS011;11828;51.508;18.118;2023-11-18T00:16:10;13.77;;;5.82;;
23310;SDS011;11828;51.508;18.118;2023-11-18T00:18:41;17.13;;;5.88;;
23310;SDS011;11828;51.508;18.118;2023-11-18T00:21:08;12.32;;;5.50;;
23310;SDS011;11828;51.508;18.118;2023-11-18T00:23:34;15.15;;;6.00;;
23310;SDS011;11828;51.508;18.118;2023-11-18T00:26:00;14.45;;;5.88;;
23310;SDS011;11828;51.508;18.118;2023-11-18T00:28:27;12.30;;;5.55;;
23310;SDS011;11828;51.508;18.118;2023-11-18T00:30:53;14.48;;;5.20;;
23310;SDS011;11828;51.508;18.118;2023-11-18T00:33:19;10.30;;;4.80;;
23310;SDS011;11828;51.508;18.118;2023-11-18T00:35:45;12.60;;;4.97;;
23310;SDS011;11828;51.508;18.118;2023-11-18T00:38:11;13.63;;;5.03;;
23310;SDS011;11828;51.508;18.118;2023-11-18T00:40:37;12.90;;;4.80;;
23310;SDS011;11828;51.508;18.118;2023-11-18T00:43:04;11.98;;;4.53;;
23310;SDS011;11828;51.508;18.118;2023-11-18T00:45:30;14.18;;;4.50;;
23310;SDS011;11828;51.508;18.118;2023-11-18T00:47:56;9.73;;;3.90;;
23310;SDS011;11828;51.508;18.118;2023-11-18T00:50:22;9.50;;;3.92;;
23310;SDS011;11828;51.508;18.118;2023-11-18T00:52:48;11.45;;;4.05;;
23310;SDS011;11828;51.508;18.118;2023-11-18T00:55:15;10.32;;;3.60;;
23310;SDS011;11828;51.508;18.118;2023-11-18T00:57:46;10.95;;;4.03;;
23310;SDS011;11828;51.508;18.118;2023-11-18T01:00:12;12.40;;;4.13;;
23310;SDS011;11828;51.508;18.118;2023-11-18T01:02:42;13.32;;;5.00;;
23310;SDS011;11828;51.508;18.118;2023-11-18T01:05:09;14.77;;;5.47;;
23310;SDS011;11828;51.508;18.118;2023-11-18T01:07:39;12.32;;;5.75;;
23310;SDS011;11828;51.508;18.118;2023-11-18T01:10:09;14.05;;;5.70;;
23310;SDS011;11828;51.508;18.118;2023-11-18T01:12:36;10.63;;;5.45;;
23310;SDS011;11828;51.508;18.118;2023-11-18T01:15:02;12.45;;;5.47;;
23310;SDS011;11828;51.508;18.118;2023-11-18T01:17:29;15.32;;;5.40;;
23310;SDS011;11828;51.508;18.118;2023-11-18T01:19:56;11.85;;;5.50;;
23310;SDS011;11828;51.508;18.118;2023-11-18T01:22:23;11.65;;;5.07;;
23310;SDS011;11828;51.508;18.118;2023-11-18T01:24:50;13.73;;;5.60;;
23310;SDS011;11828;51.508;18.118;2023-11-18T01:27:19;10.75;;;5.22;;
23310;SDS011;11828;51.508;18.118;2023-11-18T01:29:46;10.95;;;5.20;;
23310;SDS011;11828;51.508;18.118;2023-11-18T01:32:12;15.40;;;5.47;;
23310;SDS011;11828;51.508;18.118;2023-11-18T01:34:39;11.50;;;5.03;;
23310;SDS011;11828;51.508;18.118;2023-11-18T01:37:06;17.80;;;6.32;;
23310;SDS011;11828;51.508;18.118;2023-11-18T01:39:33;10.88;;;5.45;;
23310;SDS011;11828;51.508;18.118;2023-11-18T01:41:59;11.57;;;5.50;;
23310;SDS011;11828;51.508;18.118;2023-11-18T01:44:26;16.42;;;5.40;;
23310;SDS011;11828;51.508;18.118;2023-11-18T01:46:57;12.98;;;5.97;;
23310;SDS011;11828;51.508;18.118;2023-11-18T01:49:23;15.95;;;5.90;;
23310;SDS011;11828;51.508;18.118;2023-11-18T01:51:53;17.50;;;6.28;;
23310;SDS011;11828;51.508;18.118;2023-11-18T01:54:19;14.48;;;6.35;;
23310;SDS011;11828;51.508;18.118;2023-11-18T01:56:49;14.10;;;6.10;;
23310;SDS011;11828;51.508;18.118;2023-11-18T01:59:15;12.25;;;5.88;;
23310;SDS011;11828;51.508;18.118;2023-11-18T02:01:48;12.98;;;6.07;;
23310;SDS011;11828;51.508;18.118;2023-11-18T02:04:19;14.85;;;6.28;;
23310;SDS011;11828;51.508;18.118;2023-11-18T02:06:50;14.23;;;6.68;;
23310;SDS011;11828;51.508;18.118;2023-11-18T02:09:20;13.15;;;6.10;;
23310;SDS011;11828;51.508;18.118;2023-11-18T02:11:56;11.95;;;5.70;;
23310;SDS011;11828;51.508;18.118;2023-11-18T02:14:41;12.00;;;6.18;;
23310;SDS011;11828;51.508;18.118;2023-11-18T02:17:10;13.25;;;6.57;;
23310;SDS011;11828;51.508;18.118;2023-11-18T02:19:40;17.33;;;6.45;;
23310;SDS011;11828;51.508;18.118;2023-11-18T02:22:07;13.07;;;6.82;;
23310;SDS011;11828;51.508;18.118;2023-11-18T02:24:35;13.75;;;6.20;;
23310;SDS011;11828;51.508;18.118;2023-11-18T02:27:06;14.20;;;6.50;;
23310;SDS011;11828;51.508;18.118;2023-11-18T02:29:33;14.85;;;6.60;;
23310;SDS011;11828;51.508;18.118;2023-11-18T02:32:04;12.75;;;6.10;;
23310;SDS011;11828;51.508;18.118;2023-11-18T02:35:01;15.32;;;6.65;;
23310;SDS011;11828;51.508;18.118;2023-11-18T02:37:39;14.23;;;6.22;;
23310;SDS011;11828;51.508;18.118;2023-11-18T02:40:11;16.75;;;7.03;;
23310;SDS011;11828;51.508;18.118;2023-11-18T02:42:42;12.80;;;6.57;;
23310;SDS011;11828;51.508;18.118;2023-11-18T02:45:10;15.88;;;7.30;;
23310;SDS011;11828;51.508;18.118;2023-11-18T02:47:43;16.33;;;7.22;;
23310;SDS011;11828;51.508;18.118;2023-11-18T02:50:10;17.48;;;7.45;;
23310;SDS011;11828;51.508;18.118;2023-11-18T02:52:37;13.30;;;6.65;;
23310;SDS011;11828;51.508;18.118;2023-11-18T02:55:04;16.25;;;7.53;;
23310;SDS011;11828;51.508;18.118;2023-11-18T02:57:35;19.30;;;7.80;;
23310;SDS011;11828;51.508;18.118;2023-11-18T03:00:02;16.10;;;7.88;;
23310;SDS011;11828;51.508;18.118;2023-11-18T03:02:30;16.90;;;7.60;;
23310;SDS011;11828;51.508;18.118;2023-11-18T03:04:57;17.90;;;8.40;;
23310;SDS011;11828;51.508;18.118;2023-11-18T03:07:23;19.75;;;9.05;;
23310;SDS011;11828;51.508;18.118;2023-11-18T03:09:49;23.27;;;9.35;;
23310;SDS011;11828;51.508;18.118;2023-11-18T03:12:15;19.40;;;8.80;;
23310;SDS011;11828;51.508;18.118;2023-11-18T03:14:41;20.60;;;9.20;;
23310;SDS011;11828;51.508;18.118;2023-11-18T03:17:08;22.40;;;10.27;;
23310;SDS011;11828;51.508;18.118;2023-11-18T03:19:35;22.27;;;10.50;;
23310;SDS011;11828;51.508;18.118;2023-11-18T03:22:02;21.23;;;10.05;;
23310;SDS011;11828;51.508;18.118;2023-11-18T03:24:28;18.70;;;9.40;;
23310;SDS011;11828;51.508;18.118;2023-11-18T03:26:55;22.60;;;9.65;;
23310;SDS011;11828;51.508;18.118;2023-11-18T03:29:21;24.42;;;10.13;;
23310;SDS011;11828;51.508;18.118;2023-11-18T03:31:49;24.05;;;11.38;;
23310;SDS011;11828;51.508;18.118;2023-11-18T03:34:16;26.35;;;11.40;;
23310;SDS011;11828;51.508;18.118;2023-11-18T03:36:45;24.90;;;11.15;;
23310;SDS011;11828;51.508;18.118;2023-11-18T03:39:12;30.77;;;11.20;;
23310;SDS011;11828;51.508;18.118;2023-11-18T03:41:40;22.77;;;10.32;;
23310;SDS011;11828;51.508;18.118;2023-11-18T03:44:10;24.52;;;10.25;;
23310;SDS011;11828;51.508;18.118;2023-11-18T03:46:39;22.33;;;9.93;;
23310;SDS011;11828;51.508;18.118;2023-11-18T03:49:06;29.88;;;11.85;;
23310;SDS011;11828;51.508;18.118;2023-11-18T03:51:32;24.38;;;10.82;;
23310;SDS011;11828;51.508;18.118;2023-11-18T03:53:58;26.98;;;11.10;;
23310;SDS011;11828;51.508;18.118;2023-11-18T03:56:24;28.67;;;11.65;;
23310;SDS011;11828;51.508;18.118;2023-11-18T03:58:52;24.58;;;10.75;;
23310;SDS011;11828;51.508;18.118;2023-11-18T04:01:21;29.45;;;11.73;;
23310;SDS011;11828;51.508;18.118;2023-11-18T04:03:48;23.83;;;11.10;;
23310;SDS011;11828;51.508;18.118;2023-11-18T04:06:16;28.85;;;14.07;;
23310;SDS011;11828;51.508;18.118;2023-11-18T04:08:44;24.83;;;12.30;;
23310;SDS011;11828;51.508;18.118;2023-11-18T04:11:11;30.20;;;14.48;;
23310;SDS011;11828;51.508;18.118;2023-11-18T04:13:39;31.98;;;15.45;;
23310;SDS011;11828;51.508;18.118;2023-11-18T04:16:10;31.65;;;14.45;;
23310;SDS011;11828;51.508;18.118;2023-11-18T04:18:40;27.52;;;13.45;;
23310;SDS011;11828;51.508;18.118;2023-11-18T04:21:08;29.40;;;14.48;;
23310;SDS011;11828;51.508;18.118;2023-11-18T04:23:38;31.38;;;13.80;;
23310;SDS011;11828;51.508;18.118;2023-11-18T04:26:07;40.38;;;15.80;;
23310;SDS011;11828;51.508;18.118;2023-11-18T04:28:34;29.30;;;14.43;;
23310;SDS011;11828;51.508;18.118;2023-11-18T04:31:02;42.35;;;17.55;;
23310;SDS011;11828;51.508;18.118;2023-11-18T04:33:30;37.65;;;19.13;;
23310;SDS011;11828;51.508;18.118;2023-11-18T04:35:57;37.97;;;19.67;;
23310;SDS011;11828;51.508;18.118;2023-11-18T04:38:23;33.88;;;16.98;;
23310;SDS011;11828;51.508;18.118;2023-11-18T04:40:51;36.45;;;17.55;;
23310;SDS011;11828;51.508;18.118;2023-11-18T04:43:20;37.58;;;16.17;;
23310;SDS011;11828;51.508;18.118;2023-11-18T04:45:50;33.80;;;15.32;;
23310;SDS011;11828;51.508;18.118;2023-11-18T04:48:16;33.47;;;15.32;;
23310;SDS011;11828;51.508;18.118;2023-11-18T04:50:42;34.70;;;15.75;;
23310;SDS011;11828;51.508;18.118;2023-11-18T04:53:09;36.03;;;16.83;;
23310;SDS011;11828;51.508;18.118;2023-11-18T04:55:36;32.90;;;15.27;;
23310;SDS011;11828;51.508;18.118;2023-11-18T04:58:03;37.50;;;17.63;;
23310;SDS011;11828;51.508;18.118;2023-11-18T05:00:31;40.00;;;16.92;;
23310;SDS011;11828;51.508;18.118;2023-11-18T05:03:03;36.63;;;16.58;;
23310;SDS011;11828;51.508;18.118;2023-11-18T05:05:31;37.83;;;16.55;;
23310;SDS011;11828;51.508;18.118;2023-11-18T05:07:57;32.78;;;15.32;;
23310;SDS011;11828;51.508;18.118;2023-11-18T05:10:23;34.50;;;15.70;;
23310;SDS011;11828;51.508;18.118;2023-11-18T05:12:49;39.50;;;16.80;;
23310;SDS011;11828;51.508;18.118;2023-11-18T05:15:21;37.22;;;16.08;;
23310;SDS011;11828;51.508;18.118;2023-11-18T05:17:50;33.97;;;15.38;;
23310;SDS011;11828;51.508;18.118;2023-11-18T05:20:18;30.98;;;13.75;;
23310;SDS011;11828;51.508;18.118;2023-11-18T05:22:44;31.60;;;14.05;;
23310;SDS011;11828;51.508;18.118;2023-11-18T05:25:11;34.83;;;15.35;;
23310;SDS011;11828;51.508;18.118;2023-11-18T05:27:37;34.85;;;13.88;;
23310;SDS011;11828;51.508;18.118;2023-11-18T05:30:07;31.15;;;13.70;;
23310;SDS011;11828;51.508;18.118;2023-11-18T05:32:34;27.92;;;13.52;;
23310;SDS011;11828;51.508;18.118;2023-11-18T05:35:01;28.58;;;12.32;;
23310;SDS011;11828;51.508;18.118;2023-11-18T05:37:30;30.77;;;12.73;;
23310;SDS011;11828;51.508;18.118;2023-11-18T05:40:04;21.25;;;9.07;;
23310;SDS011;11828;51.508;18.118;2023-11-18T05:42:32;21.25;;;8.77;;
23310;SDS011;11828;51.508;18.118;2023-11-18T05:45:03;17.13;;;7.93;;
23310;SDS011;11828;51.508;18.118;2023-11-18T05:47:33;15.05;;;7.35;;
23310;SDS011;11828;51.508;18.118;2023-11-18T05:50:00;15.43;;;7.13;;
23310;SDS011;11828;51.508;18.118;2023-11-18T05:52:26;15.50;;;7.47;;
23310;SDS011;11828;51.508;18.118;2023-11-18T05:54:53;16.08;;;6.70;;
23310;SDS011;11828;51.508;18.118;2023-11-18T05:57:19;15.25;;;6.70;;
23310;SDS011;11828;51.508;18.118;2023-11-18T05:59:45;20.10;;;7.38;;
23310;SDS011;11828;51.508;18.118;2023-11-18T06:02:13;16.55;;;7.53;;
23310;SDS011;11828;51.508;18.118;2023-11-18T06:04:44;16.08;;;7.40;;
23310;SDS011;11828;51.508;18.118;2023-11-18T06:07:10;23.25;;;8.25;;
23310;SDS011;11828;51.508;18.118;2023-11-18T06:09:39;17.75;;;7.50;;
23310;SDS011;11828;51.508;18.118;2023-11-18T06:12:07;15.10;;;7.60;;
23310;SDS011;11828;51.508;18.118;2023-11-18T06:14:36;17.60;;;8.20;;
23310;SDS011;11828;51.508;18.118;2023-11-18T06:17:07;16.15;;;7.57;;
23310;SDS011;11828;51.508;18.118;2023-11-18T06:19:34;17.55;;;7.97;;
23310;SDS011;11828;51.508;18.118;2023-11-18T06:22:00;19.75;;;8.23;;
23310;SDS011;11828;51.508;18.118;2023-11-18T06:24:26;21.58;;;8.88;;
23310;SDS011;11828;51.508;18.118;2023-11-18T06:26:53;24.20;;;9.45;;
23310;SDS011;11828;51.508;18.118;2023-11-18T06:29:20;19.58;;;8.30;;
23310;SDS011;11828;51.508;18.118;2023-11-18T06:31:46;17.92;;;8.30;;
23310;SDS011;11828;51.508;18.118;2023-11-18T06:34:13;24.70;;;9.52;;
23310;SDS011;11828;51.508;18.118;2023-11-18T06:36:39;19.73;;;8.70;;
23310;SDS011;11828;51.508;18.118;2023-11-18T06:39:06;23.08;;;8.98;;
23310;SDS011;11828;51.508;18.118;2023-11-18T06:41:32;20.92;;;8.63;;
23310;SDS011;11828;51.508;18.118;2023-11-18T06:43:59;27.00;;;9.45;;
23310;SDS011;11828;51.508;18.118;2023-11-18T06:46:34;18.17;;;8.80;;
23310;SDS011;11828;51.508;18.118;2023-11-18T06:49:02;27.25;;;10.05;;
23310;SDS011;11828;51.508;18.118;2023-11-18T06:51:30;20.30;;;9.30;;
23310;SDS011;11828;51.508;18.118;2023-11-18T06:54:00;21.73;;;9.70;;
23310;SDS011;11828;51.508;18.118;2023-11-18T06:56:40;17.23;;;9.43;;
23310;SDS011;11828;51.508;18.118;2023-11-18T06:59:10;22.75;;;9.90;;
23310;SDS011;11828;51.508;18.118;2023-11-18T07:01:38;19.48;;;9.45;;
23310;SDS011;11828;51.508;18.118;2023-11-18T07:04:14;23.50;;;9.40;;
23310;SDS011;11828;51.508;18.118;2023-11-18T07:06:40;19.00;;;8.57;;
23310;SDS011;11828;51.508;18.118;2023-11-18T07:09:07;16.88;;;8.68;;
23310;SDS011;11828;51.508;18.118;2023-11-18T07:11:38;18.58;;;9.00;;
23310;SDS011;11828;51.508;18.118;2023-11-18T07:14:06;20.30;;;9.90;;
23310;SDS011;11828;51.508;18.118;2023-11-18T07:16:34;20.85;;;8.52;;
23310;SDS011;11828;51.508;18.118;2023-11-18T07:19:01;18.92;;;8.35;;
23310;SDS011;11828;51.508;18.118;2023-11-18T07:21:29;25.50;;;9.60;;
23310;SDS011;11828;51.508;18.118;2023-11-18T07:23:55;19.70;;;9.05;;
23310;SDS011;11828;51.508;18.118;2023-11-18T07:26:22;20.48;;;9.15;;
23310;SDS011;11828;51.508;18.118;2023-11-18T07:28:49;21.33;;;8.27;;
23310;SDS011;11828;51.508;18.118;2023-11-18T07:31:17;19.45;;;8.77;;
23310;SDS011;11828;51.508;18.118;2023-11-18T07:33:44;19.63;;;7.88;;
23310;SDS011;11828;51.508;18.118;2023-11-18T07:36:17;20.80;;;8.20;;
23310;SDS011;11828;51.508;18.118;2023-11-18T07:38:46;17.52;;;8.13;;
23310;SDS011;11828;51.508;18.118;2023-11-18T07:41:13;21.40;;;8.43;;
23310;SDS011;11828;51.508;18.118;2023-11-18T07:43:49;17.55;;;8.98;;
23310;SDS011;11828;51.508;18.118;2023-11-18T07:46:18;21.02;;;8.38;;
23310;SDS011;11828;51.508;18.118;2023-11-18T07:48:44;18.70;;;8.05;;
23310;SDS011;11828;51.508;18.118;2023-11-18T07:51:11;19.13;;;8.63;;
23310;SDS011;11828;51.508;18.118;2023-11-18T07:53:39;23.63;;;9.00;;
23310;SDS011;11828;51.508;18.118;2023-11-18T07:56:06;17.63;;;8.32;;
23310;SDS011;11828;51.508;18.118;2023-11-18T07:58:36;21.02;;;8.23;;
23310;SDS011;11828;51.508;18.118;2023-11-18T08:01:03;18.40;;;8.25;;
23310;SDS011;11828;51.508;18.118;2023-11-18T08:03:33;24.95;;;9.30;;
23310;SDS011;11828;51.508;18.118;2023-11-18T08:05:59;17.17;;;8.13;;
23310;SDS011;11828;51.508;18.118;2023-11-18T08:08:27;21.02;;;8.85;;
23310;SDS011;11828;51.508;18.118;2023-11-18T08:10:54;21.00;;;9.10;;
23310;SDS011;11828;51.508;18.118;2023-11-18T08:13:20;19.48;;;9.20;;
23310;SDS011;11828;51.508;18.118;2023-11-18T08:15:47;24.23;;;9.85;;
23310;SDS011;11828;51.508;18.118;2023-11-18T08:18:13;20.17;;;9.27;;
23310;SDS011;11828;51.508;18.118;2023-11-18T08:20:39;21.17;;;9.02;;
23310;SDS011;11828;51.508;18.118;2023-11-18T08:23:06;18.65;;;8.90;;
23310;SDS011;11828;51.508;18.118;2023-11-18T08:25:33;23.50;;;9.80;;
23310;SDS011;11828;51.508;18.118;2023-11-18T08:28:01;18.75;;;9.57;;
23310;SDS011;11828;51.508;18.118;2023-11-18T08:30:29;19.77;;;9.38;;
23310;SDS011;11828;51.508;18.118;2023-11-18T08:32:55;21.75;;;9.57;;
23310;SDS011;11828;51.508;18.118;2023-11-18T08:35:22;22.52;;;9.43;;
23310;SDS011;11828;51.508;18.118;2023-11-18T08:37:49;43.40;;;11.25;;
23310;SDS011;11828;51.508;18.118;2023-11-18T08:40:17;30.13;;;10.05;;
23310;SDS011;11828;51.508;18.118;2023-11-18T08:42:50;29.15;;;10.35;;
23310;SDS011;11828;51.508;18.118;2023-11-18T08:45:29;30.10;;;10.43;;
23310;SDS011;11828;51.508;18.118;2023-11-18T08:48:03;32.45;;;10.88;;
23310;SDS011;11828;51.508;18.118;2023-11-18T08:50:36;29.90;;;11.10;;
23310;SDS011;11828;51.508;18.118;2023-11-18T08:53:05;26.25;;;10.45;;
23310;SDS011;11828;51.508;18.118;2023-11-18T08:55:34;33.08;;;11.20;;
23310;SDS011;11828;51.508;18.118;2023-11-18T08:58:04;27.30;;;9.98;;
23310;SDS011;11828;51.508;18.118;2023-11-18T09:00:43;32.72;;;10.52;;
23310;SDS011;11828;51.508;18.118;2023-11-18T09:03:14;22.02;;;9.05;;
23310;SDS011;11828;51.508;18.118;2023-11-18T09:05:51;24.05;;;9.43;;
23310;SDS011;11828;51.508;18.118;2023-11-18T09:08:23;29.83;;;10.32;;
23310;SDS011;11828;51.508;18.118;2023-11-18T09:10:50;24.05;;;9.57;;
23310;SDS011;11828;51.508;18.118;2023-11-18T09:13:23;21.27;;;9.65;;
23310;SDS011;11828;51.508;18.118;2023-11-18T09:15:57;28.08;;;11.00;;
23310;SDS011;11828;51.508;18.118;2023-11-18T09:18:28;34.38;;;11.23;;
23310;SDS011;11828;51.508;18.118;2023-11-18T09:20:59;27.10;;;9.70;;
23310;SDS011;11828;51.508;18.118;2023-11-18T09:23:26;32.83;;;10.52;;
23310;SDS011;11828;51.508;18.118;2023-11-18T09:25:54;25.90;;;10.32;;
23310;SDS011;11828;51.508;18.118;2023-11-18T09:28:21;32.72;;;10.60;;
23310;SDS011;11828;51.508;18.118;2023-11-18T09:30:50;25.30;;;9.75;;
23310;SDS011;11828;51.508;18.118;2023-11-18T09:33:19;26.67;;;9.65;;
23310;SDS011;11828;51.508;18.118;2023-11-18T09:36:03;30.20;;;9.85;;
23310;SDS011;11828;51.508;18.118;2023-11-18T09:38:38;31.25;;;9.90;;
23310;SDS011;11828;51.508;18.118;2023-11-18T09:41:07;28.90;;;10.57;;
23310;SDS011;11828;51.508;18.118;2023-11-18T09:43:39;26.63;;;10.13;;
23310;SDS011;11828;51.508;18.118;2023-11-18T09:46:14;30.52;;;10.43;;
23310;SDS011;11828;51.508;18.118;2023-11-18T09:48:53;22.25;;;9.50;;
23310;SDS011;11828;51.508;18.118;2023-11-18T09:51:41;25.42;;;10.68;;
23310;SDS011;11828;51.508;18.118;2023-11-18T09:54:16;25.80;;;11.20;;
23310;SDS011;11828;51.508;18.118;2023-11-18T09:57:14;39.42;;;20.95;;
23310;SDS011;11828;51.508;18.118;2023-11-18T10:02:39;48.88;;;21.33;;
23310;SDS011;11828;51.508;18.118;2023-11-18T10:05:08;29.88;;;12.93;;
23310;SDS011;11828;51.508;18.118;2023-11-18T10:07:39;48.22;;;13.45;;
23310;SDS011;11828;51.508;18.118;2023-11-18T10:10:10;59.10;;;29.20;;
23310;SDS011;11828;51.508;18.118;2023-11-18T10:12:50;120.57;;;62.88;;
23310;SDS011;11828;51.508;18.118;2023-11-18T10:15:23;78.10;;;40.25;;
23310;SDS011;11828;51.508;18.118;2023-11-18T10:17:51;72.00;;;41.28;;
23310;SDS011;11828;51.508;18.118;2023-11-18T10:23:05;51.55;;;25.35;;
23310;SDS011;11828;51.508;18.118;2023-11-18T10:25:57;44.05;;;16.10;;
23310;SDS011;11828;51.508;18.118;2023-11-18T10:31:01;38.75;;;13.25;;
23310;SDS011;11828;51.508;18.118;2023-11-18T10:33:34;27.23;;;11.10;;
23310;SDS011;11828;51.508;18.118;2023-11-18T10:36:16;24.42;;;9.70;;
23310;SDS011;11828;51.508;18.118;2023-11-18T10:38:48;22.45;;;9.77;;
23310;SDS011;11828;51.508;18.118;2023-11-18T10:41:21;26.42;;;11.27;;
23310;SDS011;11828;51.508;18.118;2023-11-18T10:43:48;28.58;;;11.02;;
23310;SDS011;11828;51.508;18.118;2023-11-18T10:46:17;23.45;;;9.65;;
23310;SDS011;11828;51.508;18.118;2023-11-18T10:48:50;28.77;;;10.20;;
23310;SDS011;11828;51.508;18.118;2023-11-18T10:51:17;31.60;;;10.05;;
23310;SDS011;11828;51.508;18.118;2023-11-18T10:53:48;30.65;;;9.90;;
23310;SDS011;11828;51.508;18.118;2023-11-18T10:56:29;24.52;;;9.93;;
23310;SDS011;11828;51.508;18.118;2023-11-18T10:58:56;32.97;;;10.18;;
23310;SDS011;11828;51.508;18.118;2023-11-18T11:01:34;31.95;;;11.63;;
23310;SDS011;11828;51.508;18.118;2023-11-18T11:04:08;35.53;;;10.98;;
23310;SDS011;11828;51.508;18.118;2023-11-18T11:06:39;24.05;;;10.02;;
23310;SDS011;11828;51.508;18.118;2023-11-18T11:09:08;20.45;;;9.43;;
23310;SDS011;11828;51.508;18.118;2023-11-18T11:11:40;28.48;;;10.48;;
23310;SDS011;11828;51.508;18.118;2023-11-18T11:14:33;28.77;;;11.02;;
23310;SDS011;11828;51.508;18.118;2023-11-18T11:17:07;31.83;;;11.73;;
23310;SDS011;11828;51.508;18.118;2023-11-18T11:22:48;30.35;;;11.32;;
23310;SDS011;11828;51.508;18.118;2023-11-18T11:28:42;21.27;;;9.23;;
23310;SDS011;11828;51.508;18.118;2023-11-18T11:31:30;34.13;;;10.50;;
23310;SDS011;11828;51.508;18.118;2023-11-18T11:34:05;32.08;;;10.77;;
23310;SDS011;11828;51.508;18.118;2023-11-18T11:36:54;28.00;;;10.65;;
23310;SDS011;11828;51.508;18.118;2023-11-18T11:39:24;36.53;;;11.15;;
23310;SDS011;11828;51.508;18.118;2023-11-18T11:41:51;24.48;;;9.57;;
23310;SDS011;11828;51.508;18.118;2023-11-18T11:44:24;25.20;;;10.05;;
23310;SDS011;11828;51.508;18.118;2023-11-18T11:46:57;20.17;;;9.25;;
23310;SDS011;11828;51.508;18.118;2023-11-18T11:49:25;28.02;;;10.30;;
23310;SDS011;11828;51.508;18.118;2023-11-18T11:52:01;32.85;;;11.25;;
23310;SDS011;11828;51.508;18.118;2023-11-18T11:54:43;29.70;;;10.40;;
23310;SDS011;11828;51.508;18.118;2023-11-18T11:57:15;34.03;;;11.40;;
23310;SDS011;11828;51.508;18.118;2023-11-18T12:02:13;28.60;;;12.55;;
23310;SDS011;11828;51.508;18.118;2023-11-18T12:04:44;26.40;;;10.90;;
23310;SDS011;11828;51.508;18.118;2023-11-18T12:07:11;21.90;;;10.90;;
23310;SDS011;11828;51.508;18.118;2023-11-18T12:09:41;27.17;;;10.60;;
23310;SDS011;11828;51.508;18.118;2023-11-18T12:12:18;25.70;;;10.82;;
23310;SDS011;11828;51.508;18.118;2023-11-18T12:14:53;23.23;;;10.32;;
23310;SDS011;11828;51.508;18.118;2023-11-18T12:20:55;28.75;;;13.32;;
23310;SDS011;11828;51.508;18.118;2023-11-18T12:23:19;34.03;;;13.07;;
23310;SDS011;11828;51.508;18.118;2023-11-18T12:25:49;27.20;;;12.15;;
23310;SDS011;11828;51.508;18.118;2023-11-18T12:28:26;22.65;;;10.82;;
23310;SDS011;11828;51.508;18.118;2023-11-18T12:31:00;28.73;;;11.70;;
23310;SDS011;11828;51.508;18.118;2023-11-18T12:36:44;55.22;;;23.52;;
23310;SDS011;11828;51.508;18.118;2023-11-18T12:42:20;29.48;;;11.40;;
23310;SDS011;11828;51.508;18.118;2023-11-18T12:45:27;32.85;;;12.45;;
23310;SDS011;11828;51.508;18.118;2023-11-18T12:48:16;27.17;;;11.48;;
23310;SDS011;11828;51.508;18.118;2023-11-18T12:50:52;26.52;;;12.57;;
23310;SDS011;11828;51.508;18.118;2023-11-18T12:53:21;32.50;;;11.63;;
23310;SDS011;11828;51.508;18.118;2023-11-18T12:55:49;31.33;;;11.68;;
23310;SDS011;11828;51.508;18.118;2023-11-18T12:58:18;35.35;;;15.55;;
23310;SDS011;11828;51.508;18.118;2023-11-18T13:00:44;34.28;;;15.57;;
23310;SDS011;11828;51.508;18.118;2023-11-18T13:03:11;29.25;;;12.38;;
23310;SDS011;11828;51.508;18.118;2023-11-18T13:05:40;31.95;;;11.85;;
23310;SDS011;11828;51.508;18.118;2023-11-18T13:08:09;26.67;;;12.20;;
23310;SDS011;11828;51.508;18.118;2023-11-18T13:10:35;32.92;;;13.88;;
23310;SDS011;11828;51.508;18.118;2023-11-18T13:13:02;30.92;;;12.52;;
23310;SDS011;11828;51.508;18.118;2023-11-18T13:15:30;30.13;;;10.88;;
23310;SDS011;11828;51.508;18.118;2023-11-18T13:18:03;24.08;;;10.90;;
23310;SDS011;11828;51.508;18.118;2023-11-18T13:20:32;25.08;;;10.38;;
23310;SDS011;11828;51.508;18.118;2023-11-18T13:23:04;23.92;;;10.77;;
23310;SDS011;11828;51.508;18.118;2023-11-18T13:25:36;26.73;;;10.48;;
23310;SDS011;11828;51.508;18.118;2023-11-18T13:28:10;23.52;;;11.38;;
23310;SDS011;11828;51.508;18.118;2023-11-18T13:30:36;26.83;;;11.65;;
23310;SDS011;11828;51.508;18.118;2023-11-18T13:33:04;28.38;;;11.63;;
23310;SDS011;11828;51.508;18.118;2023-11-18T13:35:32;22.08;;;9.80;;
23310;SDS011;11828;51.508;18.118;2023-11-18T13:37:59;21.80;;;10.25;;
23310;SDS011;11828;51.508;18.118;2023-11-18T13:40:25;24.63;;;10.20;;
23310;SDS011;11828;51.508;18.118;2023-11-18T13:43:01;26.85;;;11.82;;
23310;SDS011;11828;51.508;18.118;2023-11-18T13:45:33;22.13;;;10.65;;
23310;SDS011;11828;51.508;18.118;2023-11-18T13:48:00;28.77;;;11.10;;
23310;SDS011;11828;51.508;18.118;2023-11-18T13:50:27;26.17;;;11.80;;
23310;SDS011;11828;51.508;18.118;2023-11-18T13:52:54;32.00;;;13.32;;
23310;SDS011;11828;51.508;18.118;2023-11-18T13:55:21;33.78;;;15.73;;
23310;SDS011;11828;51.508;18.118;2023-11-18T13:57:53;40.47;;;16.92;;
23310;SDS011;11828;51.508;18.118;2023-11-18T14:00:25;33.90;;;13.93;;
23310;SDS011;11828;51.508;18.118;2023-11-18T14:02:54;25.23;;;11.52;;
23310;SDS011;11828;51.508;18.118;2023-11-18T14:05:22;71.68;;;33.55;;
23310;SDS011;11828;51.508;18.118;2023-11-18T14:07:53;84.18;;;36.03;;
23310;SDS011;11828;51.508;18.118;2023-11-18T14:10:24;49.22;;;19.65;;
23310;SDS011;11828;51.508;18.118;2023-11-18T14:13:07;36.10;;;17.35;;
23310;SDS011;11828;51.508;18.118;2023-11-18T14:15:37;43.40;;;21.20;;
23310;SDS011;11828;51.508;18.118;2023-11-18T14:18:04;47.10;;;23.77;;
23310;SDS011;11828;51.508;18.118;2023-11-18T14:20:33;95.32;;;42.63;;
23310;SDS011;11828;51.508;18.118;2023-11-18T14:23:01;103.63;;;43.13;;
23310;SDS011;11828;51.508;18.118;2023-11-18T14:25:29;64.65;;;27.02;;
23310;SDS011;11828;51.508;18.118;2023-11-18T14:28:00;110.90;;;43.65;;
23310;SDS011;11828;51.508;18.118;2023-11-18T14:30:27;65.72;;;27.15;;
23310;SDS011;11828;51.508;18.118;2023-11-18T14:32:53;90.80;;;38.15;;
23310;SDS011;11828;51.508;18.118;2023-11-18T14:35:20;88.40;;;35.80;;
23310;SDS011;11828;51.508;18.118;2023-11-18T14:37:48;68.45;;;31.70;;
23310;SDS011;11828;51.508;18.118;2023-11-18T14:40:14;54.88;;;24.38;;
23310;SDS011;11828;51.508;18.118;2023-11-18T14:42:41;36.38;;;18.73;;
23310;SDS011;11828;51.508;18.118;2023-11-18T14:45:14;37.40;;;17.15;;
23310;SDS011;11828;51.508;18.118;2023-11-18T14:47:41;28.98;;;14.98;;
23310;SDS011;11828;51.508;18.118;2023-11-18T14:50:12;32.10;;;13.70;;
23310;SDS011;11828;51.508;18.118;2023-11-18T14:52:46;26.20;;;12.82;;
23310;SDS011;11828;51.508;18.118;2023-11-18T14:55:16;32.35;;;13.18;;
23310;SDS011;11828;51.508;18.118;2023-11-18T14:57:43;28.83;;;13.30;;